Terminal Aerodrome Forecast
Issued by NWS Upton, NY

Home | Current Version | Previous Version | Text Only | Print | Product List | Glossary On
Versions: 1 2 3 4 5 6 7 8 9 10 11 12 13 14 15 16 17 18 19 20 21 22 23 24 25 26 27 28 29 30 31 32 33 34 35 36 37 38 39 40 41 42 43 44 45 46 47 48 49 50
000
FTUS41 KOKX 161120
TAFLGA
TAF
KLGA 161120Z 1612/1718 32008KT P6SM BKN110
     FM161300 31005KT P6SM OVC100
     FM162000 05004KT P6SM OVC040
      TEMPO 1620/1624 5SM -SN OVC030
     FM170000 07004KT 4SM -SN OVC040
     FM170300 06006KT 4SM -RAPLSN BR OVC015
     FM170600 06006KT 3SM -RA BR OVC007
     FM171200 04008KT 4SM -RA BR OVC006=

USA.gov is the U.S. government's official web portal to all federal, state and local government web resources and services.